Time;durP1;ratioP1;P1;durP2;ratioP2;P2;SDS_P1;SDS_P2;PMS_P1;PMS_P2;Temp;Humidity;BMP_temperature;BMP_pressure;BME280_temperature;BME280_humidity;BME280_pressure;Samples;Min_cycle;Max_cycle;Signal;HPM_P1;HPM_P2
2023/05/15 00:00:00;;;;;;;;;;;21.20;88.50;;;;;;5096845;28;20350;-66
2023/05/15 00:02:26;;;;;;;;;;;21.30;88.00;;;;;;5096769;28;19939;-66
2023/05/15 00:04:52;;;;;;;;;;;21.50;87.70;;;;;;5078190;28;19912;-66
2023/05/15 00:07:17;;;;;;;;;;;21.60;87.60;;;;;;5096998;28;19904;-66
2023/05/15 00:09:43;;;;;;;;;;;21.60;87.40;;;;;;5096344;28;19904;-66
2023/05/15 00:12:08;;;;;;;;;;;21.60;87.40;;;;;;5096543;28;19914;-66
2023/05/15 00:14:34;;;;;;;;;;;21.60;87.30;;;;;;5096260;28;20347;-66
2023/05/15 00:16:59;;;;;;;;;;;21.50;87.40;;;;;;5095765;28;20354;-66
2023/05/15 00:19:25;;;;;;;;;;;21.50;87.60;;;;;;5096468;28;19908;-66
2023/05/15 00:21:50;;;;;;;;;;;21.40;87.60;;;;;;5096402;28;20307;-67
2023/05/15 00:24:16;;;;;;;;;;;21.40;87.70;;;;;;5096040;28;19908;-67
2023/05/15 00:26:41;;;;;;;;;;;21.30;87.80;;;;;;5095615;28;19908;-66
2023/05/15 00:29:07;;;;;;;;;;;21.20;87.70;;;;;;5095665;28;20003;-66
2023/05/15 00:31:32;;;;;;;;;;;21.10;87.80;;;;;;5095829;28;19923;-66
2023/05/15 00:33:58;;;;;;;;;;;21.10;88.10;;;;;;5095436;28;19908;-66
2023/05/15 00:36:24;;;;;;;;;;;21.00;88.30;;;;;;5076815;28;20347;-66
2023/05/15 00:38:50;;;;;;;;;;;21.00;88.30;;;;;;5074697;28;19908;-65
2023/05/15 00:41:16;;;;;;;;;;;20.90;88.40;;;;;;5095234;28;19915;-66
2023/05/15 00:43:42;;;;;;;;;;;20.90;88.50;;;;;;5096079;28;19926;-67
2023/05/15 00:46:08;;;;;;;;;;;21.00;88.60;;;;;;5094869;28;19909;-66
2023/05/15 00:48:34;;;;;;;;;;;21.00;88.80;;;;;;5093785;28;19931;-66
2023/05/15 00:50:59;;;;;;;;;;;21.20;88.70;;;;;;5095778;28;19924;-67
2023/05/15 00:53:28;;;;;;;;;;;21.30;88.30;;;;;;5095606;28;20248;-66
2023/05/15 00:55:55;;;;;;;;;;;21.50;87.90;;;;;;5095421;28;20339;-66
2023/05/15 00:58:21;;;;;;;;;;;21.70;87.50;;;;;;5094616;28;19909;-66
2023/05/15 01:00:48;;;;;;;;;;;21.70;87.10;;;;;;5095649;28;20467;-66
2023/05/15 01:03:13;;;;;;;;;;;21.80;87.00;;;;;;5095587;28;19904;-66
2023/05/15 01:05:39;;;;;;;;;;;21.70;86.90;;;;;;5095243;28;19972;-66
2023/05/15 01:08:23;;;;;;;;;;;21.70;87.00;;;;;;5094554;28;19915;-67
2023/05/15 01:10:50;;;;;;;;;;;21.60;87.00;;;;;;5094342;28;20015;-66
2023/05/15 01:13:17;;;;;;;;;;;21.50;86.90;;;;;;5095085;28;20267;-67
2023/05/15 01:15:42;;;;;;;;;;;21.50;87.10;;;;;;5095015;28;20416;-66
2023/05/15 01:18:08;;;;;;;;;;;21.50;87.40;;;;;;5094864;28;20006;-66
2023/05/15 01:20:42;;;;;;;;;;;21.40;87.50;;;;;;5095016;28;19904;-66
2023/05/15 01:23:13;;;;;;;;;;;21.30;87.60;;;;;;5094989;28;19949;-66
2023/05/15 01:25:51;;;;;;;;;;;21.20;87.80;;;;;;5095452;28;20410;-66
2023/05/15 01:28:20;;;;;;;;;;;21.20;88.00;;;;;;5094377;28;19912;-67
2023/05/15 01:30:47;;;;;;;;;;;21.10;88.10;;;;;;5095219;28;19951;-66
2023/05/15 01:33:18;;;;;;;;;;;21.00;88.30;;;;;;5094722;28;19916;-67
2023/05/15 01:35:59;;;;;;;;;;;21.00;88.40;;;;;;5093784;28;19912;-66
2023/05/15 01:38:33;;;;;;;;;;;20.90;88.40;;;;;;5094968;28;19905;-67
2023/05/15 01:41:02;;;;;;;;;;;20.90;88.60;;;;;;5094621;28;19904;-66
2023/05/15 01:43:28;;;;;;;;;;;21.00;88.80;;;;;;5076208;28;19927;-67
2023/05/15 01:45:55;;;;;;;;;;;21.00;88.70;;;;;;5094316;28;19908;-67
2023/05/15 01:48:21;;;;;;;;;;;21.20;88.80;;;;;;5095024;28;19904;-66
2023/05/15 01:50:47;;;;;;;;;;;21.40;88.50;;;;;;5094836;28;20262;-66
2023/05/15 01:53:13;;;;;;;;;;;21.60;88.00;;;;;;5095008;28;19990;-66
2023/05/15 01:55:40;;;;;;;;;;;21.80;87.60;;;;;;5094950;28;19918;-66
2023/05/15 01:58:05;;;;;;;;;;;21.90;87.20;;;;;;5094354;28;20377;-66
2023/05/15 02:00:31;;;;;;;;;;;21.90;86.70;;;;;;5094271;28;20002;-66
2023/05/15 02:02:57;;;;;;;;;;;21.90;86.60;;;;;;5093824;28;19912;-66
2023/05/15 02:05:23;;;;;;;;;;;21.90;86.60;;;;;;5094202;28;19908;-66
2023/05/15 02:07:48;;;;;;;;;;;21.80;86.70;;;;;;5076310;28;20334;-66
2023/05/15 02:10:16;;;;;;;;;;;21.80;86.80;;;;;;5094097;28;19911;-67
2023/05/15 02:12:42;;;;;;;;;;;21.70;87.00;;;;;;5093943;28;19908;-66
2023/05/15 02:15:08;;;;;;;;;;;21.60;87.20;;;;;;5094420;28;19911;-67
2023/05/15 02:17:34;;;;;;;;;;;21.50;87.30;;;;;;5094293;28;19904;-66
2023/05/15 02:20:00;;;;;;;;;;;21.50;87.50;;;;;;5094273;28;20331;-66
2023/05/15 02:22:25;;;;;;;;;;;21.40;87.60;;;;;;5094133;28;19958;-66
2023/05/15 02:24:51;;;;;;;;;;;21.30;88.00;;;;;;5092922;28;20236;-66
2023/05/15 02:27:19;;;;;;;;;;;21.30;88.10;;;;;;5093555;28;20016;-67
2023/05/15 02:29:47;;;;;;;;;;;21.20;87.90;;;;;;5093920;28;19904;-66
2023/05/15 02:32:13;;;;;;;;;;;21.10;88.20;;;;;;5093826;28;20300;-66
2023/05/15 02:34:43;;;;;;;;;;;21.10;88.30;;;;;;5093023;28;19912;-66
2023/05/15 02:37:12;;;;;;;;;;;21.10;88.40;;;;;;5094520;28;19910;-66
2023/05/15 02:39:39;;;;;;;;;;;21.00;88.60;;;;;;5094108;28;19908;-66
2023/05/15 02:42:05;;;;;;;;;;;21.00;88.70;;;;;;5093799;28;19904;-66
2023/05/15 02:44:32;;;;;;;;;;;21.10;88.80;;;;;;5093665;28;19923;-66
2023/05/15 02:46:58;;;;;;;;;;;21.20;88.60;;;;;;5093766;28;20231;-66
2023/05/15 02:49:23;;;;;;;;;;;21.40;88.30;;;;;;5094091;28;19915;-66
2023/05/15 02:51:49;;;;;;;;;;;21.60;87.90;;;;;;5093567;28;19908;-66
2023/05/15 02:54:15;;;;;;;;;;;21.80;87.50;;;;;;5093193;28;19912;-66
2023/05/15 02:56:40;;;;;;;;;;;21.60;81.30;;;;;;5090437;28;20002;-66
2023/05/15 02:59:06;;;;;;;;;;;21.70;83.90;;;;;;5097424;28;19908;-66
2023/05/15 03:01:31;;;;;;;;;;;21.70;84.80;;;;;;5097691;28;19904;-66
2023/05/15 03:03:57;;;;;;;;;;;21.70;85.60;;;;;;5098162;28;19904;-66
2023/05/15 03:06:22;;;;;;;;;;;21.70;85.80;;;;;;5078493;28;19918;-66
2023/05/15 03:08:48;;;;;;;;;;;21.60;86.20;;;;;;5097765;28;19911;-66
2023/05/15 03:11:13;;;;;;;;;;;21.50;86.30;;;;;;5097296;28;19909;-66
2023/05/15 03:13:38;;;;;;;;;;;21.50;86.50;;;;;;5079396;28;19970;-67
2023/05/15 03:16:04;;;;;;;;;;;21.40;86.60;;;;;;5097574;28;19904;-66
2023/05/15 03:18:30;;;;;;;;;;;21.40;86.90;;;;;;5096566;28;19999;-66
2023/05/15 03:20:55;;;;;;;;;;;21.30;87.30;;;;;;5079073;28;19904;-67
2023/05/15 03:23:21;;;;;;;;;;;21.20;87.50;;;;;;5097521;28;19911;-66
2023/05/15 03:25:46;;;;;;;;;;;21.20;87.80;;;;;;5097433;28;19915;-67
2023/05/15 03:28:12;;;;;;;;;;;21.10;88.10;;;;;;5078380;28;20301;-67
2023/05/15 03:30:37;;;;;;;;;;;21.10;88.40;;;;;;5097483;28;19908;-67
2023/05/15 03:33:03;;;;;;;;;;;21.10;88.20;;;;;;5097310;28;19908;-67
2023/05/15 03:35:31;;;;;;;;;;;21.00;88.10;;;;;;5096329;28;19908;-67
2023/05/15 03:37:56;;;;;;;;;;;21.00;88.30;;;;;;5096820;28;19914;-67
2023/05/15 03:40:21;;;;;;;;;;;21.00;88.30;;;;;;5097109;28;19904;-67
2023/05/15 03:42:47;;;;;;;;;;;21.10;88.70;;;;;;5097010;28;20223;-67
2023/05/15 03:45:12;;;;;;;;;;;21.20;88.60;;;;;;5096361;28;19908;-66
2023/05/15 03:47:38;;;;;;;;;;;21.30;88.60;;;;;;5096745;28;19904;-67
2023/05/15 03:50:04;;;;;;;;;;;21.50;88.10;;;;;;5096978;28;19958;-66
2023/05/15 03:52:29;;;;;;;;;;;21.70;87.50;;;;;;5096668;28;19912;-67
2023/05/15 03:54:55;;;;;;;;;;;21.80;87.20;;;;;;5096223;28;19961;-67
2023/05/15 03:57:20;;;;;;;;;;;21.80;86.90;;;;;;5096839;28;19904;-67
2023/05/15 03:59:46;;;;;;;;;;;21.80;86.50;;;;;;5096852;28;20461;-67
2023/05/15 04:02:11;;;;;;;;;;;21.80;86.60;;;;;;5096491;28;19927;-67
2023/05/15 04:04:37;;;;;;;;;;;21.80;86.50;;;;;;5095810;28;19912;-67
2023/05/15 04:07:03;;;;;;;;;;;21.70;86.60;;;;;;5096827;28;19980;-67
2023/05/15 04:09:29;;;;;;;;;;;21.70;87.00;;;;;;5095018;28;19957;-67
2023/05/15 04:11:54;;;;;;;;;;;21.60;87.00;;;;;;5096514;28;19908;-67
2023/05/15 04:14:20;;;;;;;;;;;21.50;87.00;;;;;;5096443;28;19973;-67
2023/05/15 04:16:45;;;;;;;;;;;21.50;87.10;;;;;;5095522;28;19908;-67
2023/05/15 04:19:11;;;;;;;;;;;21.40;87.00;;;;;;5096068;28;19907;-67
2023/05/15 04:21:36;;;;;;;;;;;21.30;87.30;;;;;;5096283;28;19912;-67
2023/05/15 04:24:02;;;;;;;;;;;21.30;87.50;;;;;;5096256;28;19957;-67
2023/05/15 04:26:27;;;;;;;;;;;21.20;87.70;;;;;;5095478;28;20056;-67
2023/05/15 04:28:53;;;;;;;;;;;21.20;88.20;;;;;;5096160;28;19961;-67
2023/05/15 04:31:18;;;;;;;;;;;21.10;88.20;;;;;;5096159;28;19915;-67
2023/05/15 04:33:44;;;;;;;;;;;21.10;88.30;;;;;;5094814;28;20347;-67
2023/05/15 04:36:09;;;;;;;;;;;21.10;88.30;;;;;;5095841;28;19908;-67
2023/05/15 04:38:35;;;;;;;;;;;21.10;88.40;;;;;;5096020;28;19904;-67
2023/05/15 04:41:00;;;;;;;;;;;21.10;88.50;;;;;;5095845;28;20223;-67
2023/05/15 04:43:26;;;;;;;;;;;21.10;88.50;;;;;;5095136;28;19978;-66
2023/05/15 04:45:51;;;;;;;;;;;21.30;88.60;;;;;;5095447;28;19952;-66
2023/05/15 04:48:18;;;;;;;;;;;21.40;88.30;;;;;;5095746;28;19908;-67
2023/05/15 04:50:43;;;;;;;;;;;21.60;87.90;;;;;;5095614;28;19908;-67
2023/05/15 04:53:09;;;;;;;;;;;21.80;87.60;;;;;;5095162;28;20374;-66
2023/05/15 04:55:34;;;;;;;;;;;21.90;87.30;;;;;;5095038;28;19904;-66
2023/05/15 04:58:00;;;;;;;;;;;21.90;86.90;;;;;;5095169;28;19915;-66
2023/05/15 05:00:27;;;;;;;;;;;21.90;86.80;;;;;;5095160;28;19904;-66
2023/05/15 05:02:52;;;;;;;;;;;21.90;87.00;;;;;;5095378;28;19904;-67
2023/05/15 05:05:18;;;;;;;;;;;21.80;87.00;;;;;;5094742;28;19904;-66
2023/05/15 05:07:45;;;;;;;;;;;21.80;87.10;;;;;;5095595;28;19908;-67
2023/05/15 05:10:10;;;;;;;;;;;21.70;86.90;;;;;;5092554;28;19983;-67
2023/05/15 05:12:36;;;;;;;;;;;21.60;87.00;;;;;;5095289;28;20011;-67
2023/05/15 05:15:05;;;;;;;;;;;21.60;87.00;;;;;;5095037;28;20002;-67
2023/05/15 05:17:30;;;;;;;;;;;21.50;87.20;;;;;;5076883;28;19955;-67
2023/05/15 05:19:56;;;;;;;;;;;21.40;87.50;;;;;;5092987;28;19959;-67
2023/05/15 05:22:21;;;;;;;;;;;21.40;87.70;;;;;;5094416;28;19912;-67
2023/05/15 05:24:46;;;;;;;;;;;21.30;87.90;;;;;;5094574;28;19918;-67
2023/05/15 05:27:12;;;;;;;;;;;21.30;88.30;;;;;;5094500;28;19908;-68
2023/05/15 05:29:38;;;;;;;;;;;21.20;88.50;;;;;;5093246;28;19977;-67
2023/05/15 05:32:04;;;;;;;;;;;21.20;88.50;;;;;;5094555;28;19916;-67
2023/05/15 05:34:30;;;;;;;;;;;21.20;88.70;;;;;;5094830;28;19912;-67
2023/05/15 05:36:55;;;;;;;;;;;21.10;88.80;;;;;;5093692;28;19908;-67
2023/05/15 05:39:21;;;;;;;;;;;21.10;88.70;;;;;;5094581;28;19929;-67
2023/05/15 05:41:46;;;;;;;;;;;21.10;88.70;;;;;;5092494;28;19917;-67
2023/05/15 05:44:12;;;;;;;;;;;21.10;88.70;;;;;;5094316;28;20324;-67
2023/05/15 05:46:37;;;;;;;;;;;21.30;88.30;;;;;;5100711;28;19912;-67
2023/05/15 05:49:03;;;;;;;;;;;21.40;88.20;;;;;;5074095;28;19909;-68
2023/05/15 05:51:28;;;;;;;;;;;21.50;87.80;;;;;;5090727;28;19962;-69
2023/05/15 05:53:54;;;;;;;;;;;21.80;87.60;;;;;;5101839;28;19955;-69
2023/05/15 05:56:20;;;;;;;;;;;21.90;87.70;;;;;;5100674;28;19966;-69
2023/05/15 05:58:46;;;;;;;;;;;22.00;86.50;;;;;;5093275;28;20322;-70
2023/05/15 06:01:11;;;;;;;;;;;22.00;86.90;;;;;;5074572;28;19959;-69
2023/05/15 06:03:37;;;;;;;;;;;22.00;86.80;;;;;;5094296;28;20015;-70
2023/05/15 06:06:03;;;;;;;;;;;22.00;87.00;;;;;;5095108;28;20247;-70
2023/05/15 06:08:28;;;;;;;;;;;21.90;87.70;;;;;;5097350;28;19913;-70
2023/05/15 06:10:54;;;;;;;;;;;21.80;86.50;;;;;;5091445;28;19922;-70
2023/05/15 06:13:19;;;;;;;;;;;21.70;84.30;;;;;;5093880;28;20003;-69
2023/05/15 06:15:46;;;;;;;;;;;21.40;82.00;;;;;;5104100;28;19915;-66
2023/05/15 06:18:11;;;;;;;;;;;21.30;83.70;;;;;;5101554;28;19919;-66
2023/05/15 06:20:37;;;;;;;;;;;21.30;84.90;;;;;;5096216;28;19916;-66
2023/05/15 06:23:02;;;;;;;;;;;21.20;85.80;;;;;;5113109;28;19908;-67
2023/05/15 06:25:28;;;;;;;;;;;21.20;86.70;;;;;;5093703;28;20013;-66
2023/05/15 06:27:54;;;;;;;;;;;21.10;87.10;;;;;;5106747;28;19908;-66
2023/05/15 06:30:20;;;;;;;;;;;21.10;87.50;;;;;;5094592;28;20283;-67
2023/05/15 06:32:45;;;;;;;;;;;21.10;87.80;;;;;;5094873;28;20391;-63
2023/05/15 06:35:11;;;;;;;;;;;21.10;88.60;;;;;;5105078;28;19930;-64
2023/05/15 06:37:36;;;;;;;;;;;21.00;88.30;;;;;;5111500;28;20359;-64
2023/05/15 06:40:03;;;;;;;;;;;21.00;88.40;;;;;;5099985;28;19970;-66
2023/05/15 06:42:28;;;;;;;;;;;20.90;88.60;;;;;;5102555;28;19920;-64
2023/05/15 06:44:54;;;;;;;;;;;21.00;88.80;;;;;;5079853;28;19915;-65
2023/05/15 06:47:19;;;;;;;;;;;21.10;89.00;;;;;;5097685;28;19908;-63
2023/05/15 06:49:45;;;;;;;;;;;21.20;89.00;;;;;;5099772;28;19959;-56
2023/05/15 06:52:11;;;;;;;;;;;21.40;88.60;;;;;;5114187;28;20259;-54
2023/05/15 06:54:36;;;;;;;;;;;21.70;88.30;;;;;;5094983;28;19942;-55
2023/05/15 06:57:01;;;;;;;;;;;22.00;87.50;;;;;;5098064;28;19935;-56
2023/05/15 06:59:27;;;;;;;;;;;22.20;87.00;;;;;;5104341;28;20283;-61
2023/05/15 07:01:53;;;;;;;;;;;22.20;86.60;;;;;;5094619;28;19983;-55
2023/05/15 07:04:18;;;;;;;;;;;22.20;86.60;;;;;;5096026;28;19912;-54
2023/05/15 07:06:44;;;;;;;;;;;22.20;86.60;;;;;;5097297;28;20491;-55
2023/05/15 07:09:09;;;;;;;;;;;22.20;86.70;;;;;;5117887;28;19915;-65
2023/05/15 07:11:37;;;;;;;;;;;22.20;86.90;;;;;;5082530;28;19920;-55
2023/05/15 07:14:03;;;;;;;;;;;22.10;87.00;;;;;;5117993;28;19911;-54
2023/05/15 07:16:29;;;;;;;;;;;22.00;87.30;;;;;;5103578;28;19919;-55
2023/05/15 07:18:54;;;;;;;;;;;22.00;87.70;;;;;;5103666;28;20275;-49
2023/05/15 07:21:19;;;;;;;;;;;21.90;87.80;;;;;;5095094;28;19912;-55
2023/05/15 07:23:45;;;;;;;;;;;21.80;88.10;;;;;;5096691;28;20365;-54
2023/05/15 07:26:12;;;;;;;;;;;21.80;88.40;;;;;;5096383;28;19908;-68
2023/05/15 07:28:38;;;;;;;;;;;21.70;88.40;;;;;;5097367;28;19915;-67
2023/05/15 07:31:03;;;;;;;;;;;21.60;88.50;;;;;;5097229;28;20007;-66
2023/05/15 07:33:29;;;;;;;;;;;21.60;88.70;;;;;;5094777;28;19916;-68
2023/05/15 07:35:54;;;;;;;;;;;21.50;88.80;;;;;;5097215;28;19916;-68
2023/05/15 07:38:20;;;;;;;;;;;21.50;88.80;;;;;;5079163;28;19919;-67
2023/05/15 07:40:45;;;;;;;;;;;21.50;89.30;;;;;;5083603;28;19919;-71
2023/05/15 07:43:10;;;;;;;;;;;21.40;89.30;;;;;;5101829;28;19961;-71
2023/05/15 07:45:36;;;;;;;;;;;21.40;89.60;;;;;;5096662;28;19919;-68
2023/05/15 07:48:18;;;;;;;;;;;21.40;89.80;;;;;;5095461;28;19913;-70
2023/05/15 07:50:45;;;;;;;;;;;21.40;89.90;;;;;;5096326;28;20374;-69
2023/05/15 07:53:11;;;;;;;;;;;21.50;89.70;;;;;;5077753;28;19923;-69
2023/05/15 07:55:36;;;;;;;;;;;21.60;89.80;;;;;;5094689;28;20290;-70
2023/05/15 07:58:02;;;;;;;;;;;21.80;88.90;;;;;;5092529;28;19912;-68
2023/05/15 08:00:27;;;;;;;;;;;21.90;88.40;;;;;;5117139;28;19951;-68
2023/05/15 08:02:52;;;;;;;;;;;22.10;88.20;;;;;;5102065;28;19912;-67
2023/05/15 08:05:18;;;;;;;;;;;22.10;88.00;;;;;;5093600;28;19912;-68
2023/05/15 08:07:44;;;;;;;;;;;22.10;87.90;;;;;;5076577;28;20355;-72
2023/05/15 08:10:10;;;;;;;;;;;22.10;87.90;;;;;;5092747;28;19912;-71
2023/05/15 08:12:35;;;;;;;;;;;22.10;87.80;;;;;;5093919;28;19974;-69
2023/05/15 08:15:01;;;;;;;;;;;22.00;87.90;;;;;;5096767;28;19958;-67
2023/05/15 08:17:26;;;;;;;;;;;22.00;88.20;;;;;;5096306;28;19920;-73
2023/05/15 08:19:52;;;;;;;;;;;22.00;88.40;;;;;;5100932;28;19912;-69
2023/05/15 08:22:17;;;;;;;;;;;21.90;88.50;;;;;;5110277;28;19962;-71
2023/05/15 08:24:43;;;;;;;;;;;21.90;88.70;;;;;;5108922;28;19918;-68
2023/05/15 08:27:09;;;;;;;;;;;21.80;89.10;;;;;;5107250;28;19920;-73
2023/05/15 08:29:35;;;;;;;;;;;21.70;89.20;;;;;;5095772;28;19951;-69
2023/05/15 08:32:00;;;;;;;;;;;21.70;89.40;;;;;;5095441;28;19913;-69
2023/05/15 08:34:26;;;;;;;;;;;21.60;89.30;;;;;;5094675;28;20009;-69
2023/05/15 08:36:51;;;;;;;;;;;21.60;89.30;;;;;;5092114;28;19912;-68
2023/05/15 08:39:17;;;;;;;;;;;21.60;89.60;;;;;;5106175;28;20006;-68
2023/05/15 08:41:57;;;;;;;;;;;21.50;89.40;;;;;;5110271;28;19912;-75
2023/05/15 08:44:23;;;;;;;;;;;21.50;89.60;;;;;;5099919;28;19973;-68
2023/05/15 08:46:48;;;;;;;;;;;21.50;89.70;;;;;;5095720;28;19954;-68
2023/05/15 08:49:18;;;;;;;;;;;21.50;90.00;;;;;;5092819;28;19912;-71
2023/05/15 08:51:44;;;;;;;;;;;21.40;90.00;;;;;;5093739;28;19923;-70
2023/05/15 08:54:10;;;;;;;;;;;21.50;90.10;;;;;;5095318;28;19912;-69
2023/05/15 08:56:36;;;;;;;;;;;21.50;90.00;;;;;;5093843;28;19942;-70
2023/05/15 08:59:02;;;;;;;;;;;21.70;89.80;;;;;;5079956;28;19919;-73
2023/05/15 09:01:27;;;;;;;;;;;21.80;89.40;;;;;;5113977;28;19912;-69
2023/05/15 09:03:52;;;;;;;;;;;22.00;88.90;;;;;;5111194;28;19915;-74
2023/05/15 09:06:19;;;;;;;;;;;22.20;88.60;;;;;;5115546;28;19995;-73
2023/05/15 09:08:45;;;;;;;;;;;22.20;88.50;;;;;;5098304;28;19912;-70
2023/05/15 09:11:11;;;;;;;;;;;22.20;88.20;;;;;;5095057;28;19919;-70
2023/05/15 09:13:36;;;;;;;;;;;22.20;88.30;;;;;;5098637;28;20003;-69
2023/05/15 09:16:02;;;;;;;;;;;22.20;88.60;;;;;;5115638;28;19998;-73
2023/05/15 09:18:27;;;;;;;;;;;22.20;88.70;;;;;;5090378;28;20300;-69
2023/05/15 09:20:53;;;;;;;;;;;22.10;88.80;;;;;;5093171;28;19913;-70
2023/05/15 09:23:23;;;;;;;;;;;22.10;89.00;;;;;;5094926;28;19913;-69
2023/05/15 09:25:52;;;;;;;;;;;22.00;89.10;;;;;;5101075;28;19912;-70
2023/05/15 09:28:31;;;;;;;;;;;22.00;89.40;;;;;;5094519;28;19908;-74
2023/05/15 09:30:58;;;;;;;;;;;21.90;89.60;;;;;;5091392;28;19916;-67
2023/05/15 09:33:31;;;;;;;;;;;21.80;89.60;;;;;;5094584;28;19990;-66
2023/05/15 09:35:57;;;;;;;;;;;21.80;89.80;;;;;;5094520;28;19919;-68
2023/05/15 09:38:22;;;;;;;;;;;21.70;89.90;;;;;;5094760;28;19912;-68
2023/05/15 09:40:48;;;;;;;;;;;21.70;89.90;;;;;;5093840;28;19912;-70
2023/05/15 09:43:14;;;;;;;;;;;21.70;90.00;;;;;;5097278;28;19920;-67
2023/05/15 09:45:40;;;;;;;;;;;21.60;90.10;;;;;;5101604;28;19920;-66
2023/05/15 09:48:06;;;;;;;;;;;21.60;90.10;;;;;;5093247;28;20270;-70
2023/05/15 09:50:35;;;;;;;;;;;21.60;90.20;;;;;;5093744;28;19919;-65
2023/05/15 09:53:01;;;;;;;;;;;21.60;90.30;;;;;;5094619;28;19916;-66
2023/05/15 09:55:27;;;;;;;;;;;21.60;90.30;;;;;;5095418;28;20267;-65
2023/05/15 09:58:11;;;;;;;;;;;21.60;90.30;;;;;;5106563;28;20285;-64
2023/05/15 10:00:37;;;;;;;;;;;21.70;90.20;;;;;;5093307;28;19931;-66
2023/05/15 10:03:03;;;;;;;;;;;21.90;90.10;;;;;;5102380;28;19912;-64
2023/05/15 10:05:29;;;;;;;;;;;22.00;89.70;;;;;;5114836;28;19908;-71
2023/05/15 10:07:56;;;;;;;;;;;22.10;89.50;;;;;;5114608;28;19914;-69
2023/05/15 10:10:21;;;;;;;;;;;22.20;89.40;;;;;;5114433;28;20006;-72
2023/05/15 10:12:49;;;;;;;;;;;22.20;89.30;;;;;;5094865;28;20011;-67
2023/05/15 10:15:15;;;;;;;;;;;22.20;89.30;;;;;;5090055;28;19918;-70
2023/05/15 10:17:41;;;;;;;;;;;22.20;89.30;;;;;;5093750;28;20270;-73
2023/05/15 10:20:07;;;;;;;;;;;22.10;89.30;;;;;;5092814;28;20488;-65
2023/05/15 10:22:35;;;;;;;;;;;22.10;89.50;;;;;;5110901;28;19912;-64
2023/05/15 10:25:16;;;;;;;;;;;22.10;89.70;;;;;;5095866;28;19973;-63
2023/05/15 10:27:42;;;;;;;;;;;22.00;89.70;;;;;;5094225;28;19915;-66
2023/05/15 10:30:09;;;;;;;;;;;22.00;89.80;;;;;;5111859;28;19916;-64
2023/05/15 10:32:35;;;;;;;;;;;21.90;89.80;;;;;;5107719;28;20053;-63
2023/05/15 10:35:01;;;;;;;;;;;21.80;89.80;;;;;;5099762;28;19951;-63
2023/05/15 10:37:27;;;;;;;;;;;21.80;90.00;;;;;;5091905;28;20068;-70
2023/05/15 10:39:54;;;;;;;;;;;21.70;90.00;;;;;;5097324;28;20031;-68
2023/05/15 10:42:21;;;;;;;;;;;21.70;90.10;;;;;;5113847;28;19965;-65
2023/05/15 10:44:47;;;;;;;;;;;21.70;90.20;;;;;;5101438;28;19922;-64
2023/05/15 10:47:13;;;;;;;;;;;21.60;90.30;;;;;;5091056;28;19999;-65
2023/05/15 10:49:38;;;;;;;;;;;21.60;90.20;;;;;;5090735;28;19946;-65
2023/05/15 10:52:04;;;;;;;;;;;21.60;90.30;;;;;;5093526;28;19921;-65
2023/05/15 10:54:30;;;;;;;;;;;21.60;90.30;;;;;;5092947;28;19973;-64
2023/05/15 10:56:55;;;;;;;;;;;21.70;90.40;;;;;;5093268;28;20232;-65
2023/05/15 10:59:28;;;;;;;;;;;21.70;90.30;;;;;;5107615;28;19918;-64
2023/05/15 11:01:54;;;;;;;;;;;21.80;90.20;;;;;;5111344;28;20278;-64
2023/05/15 11:04:21;;;;;;;;;;;22.00;90.10;;;;;;5108061;28;19912;-63
2023/05/15 11:06:48;;;;;;;;;;;22.10;89.80;;;;;;5092543;28;19919;-69
2023/05/15 11:09:25;;;;;;;;;;;22.20;89.40;;;;;;5093756;28;19933;-67
2023/05/15 11:11:51;;;;;;;;;;;22.30;89.30;;;;;;5098536;28;19955;-67
2023/05/15 11:14:20;;;;;;;;;;;22.30;89.20;;;;;;5098218;28;19998;-69
2023/05/15 11:16:52;;;;;;;;;;;22.30;89.10;;;;;;5091655;28;19916;-65
2023/05/15 11:19:33;;;;;;;;;;;22.30;89.40;;;;;;5095168;28;19912;-64
2023/05/15 11:22:00;;;;;;;;;;;22.20;89.30;;;;;;5095781;28;19954;-69
2023/05/15 11:24:30;;;;;;;;;;;22.20;89.70;;;;;;5096708;28;20323;-66
2023/05/15 11:26:59;;;;;;;;;;;22.10;89.70;;;;;;5112810;28;19912;-70
2023/05/15 11:29:24;;;;;;;;;;;22.10;89.90;;;;;;5096839;28;20015;-65
2023/05/15 11:31:50;;;;;;;;;;;22.10;90.00;;;;;;5092880;28;20004;-68
2023/05/15 11:34:27;;;;;;;;;;;22.00;90.00;;;;;;5104068;28;19916;-68
2023/05/15 11:36:52;;;;;;;;;;;21.90;90.10;;;;;;5094223;28;19919;-65
2023/05/15 11:39:22;;;;;;;;;;;21.90;90.20;;;;;;5095714;28;19916;-63
2023/05/15 11:41:48;;;;;;;;;;;21.80;90.20;;;;;;5104746;28;19916;-59
2023/05/15 11:44:18;;;;;;;;;;;21.70;90.30;;;;;;5096376;28;20075;-58
2023/05/15 11:46:44;;;;;;;;;;;21.80;90.40;;;;;;5095743;28;19912;-60
2023/05/15 11:49:10;;;;;;;;;;;21.70;90.40;;;;;;5096641;28;19936;-59
2023/05/15 11:51:41;;;;;;;;;;;21.70;90.50;;;;;;5077978;28;20487;-58
2023/05/15 11:54:08;;;;;;;;;;;21.60;90.50;;;;;;5117156;28;20012;-62
2023/05/15 11:56:34;;;;;;;;;;;21.60;90.40;;;;;;5107668;28;20004;-58
2023/05/15 11:59:02;;;;;;;;;;;21.60;90.50;;;;;;5095849;28;19914;-62
2023/05/15 12:01:37;;;;;;;;;;;21.70;90.50;;;;;;5095104;28;19916;-60
2023/05/15 12:04:10;;;;;;;;;;;21.70;90.50;;;;;;5112041;28;19919;-53
2023/05/15 12:06:35;;;;;;;;;;;21.80;90.40;;;;;;5098987;28;19941;-58
2023/05/15 12:09:03;;;;;;;;;;;21.90;90.20;;;;;;5106654;28;20395;-62
2023/05/15 12:11:29;;;;;;;;;;;22.10;90.10;;;;;;5115355;28;20346;-63
2023/05/15 12:13:54;;;;;;;;;;;22.20;90.00;;;;;;5106089;28;19916;-59
2023/05/15 12:16:26;;;;;;;;;;;22.20;89.80;;;;;;5104685;28;20336;-60
2023/05/15 12:18:52;;;;;;;;;;;22.20;89.70;;;;;;5096191;28;19909;-60
2023/05/15 12:21:17;;;;;;;;;;;22.20;89.70;;;;;;5096256;28;19916;-58
2023/05/15 12:23:52;;;;;;;;;;;22.10;89.70;;;;;;5093671;28;19916;-60
2023/05/15 12:26:18;;;;;;;;;;;22.10;89.80;;;;;;5099286;28;19916;-59
2023/05/15 12:28:44;;;;;;;;;;;22.00;89.80;;;;;;5074454;28;20061;-57
2023/05/15 12:31:10;;;;;;;;;;;22.00;90.20;;;;;;5073234;28;20028;-60
2023/05/15 12:33:36;;;;;;;;;;;22.00;90.10;;;;;;5108949;28;19919;-57
2023/05/15 12:36:01;;;;;;;;;;;21.90;90.20;;;;;;5076485;28;20355;-57
2023/05/15 12:38:27;;;;;;;;;;;21.90;90.10;;;;;;5101697;28;19937;-57
2023/05/15 12:40:53;;;;;;;;;;;21.80;90.20;;;;;;5108986;28;20317;-57
2023/05/15 12:43:19;;;;;;;;;;;21.80;90.30;;;;;;5106413;28;19920;-59
2023/05/15 12:45:45;;;;;;;;;;;21.70;90.30;;;;;;5098648;28;19934;-58
2023/05/15 12:48:14;;;;;;;;;;;21.70;90.30;;;;;;5100647;28;19918;-58
2023/05/15 12:50:39;;;;;;;;;;;21.60;90.30;;;;;;5106293;28;19998;-58
2023/05/15 12:53:05;;;;;;;;;;;21.60;90.40;;;;;;5077692;28;19991;-58
2023/05/15 12:55:33;;;;;;;;;;;21.50;90.40;;;;;;5093351;28;20392;-57
2023/05/15 12:58:01;;;;;;;;;;;21.50;90.40;;;;;;5093461;28;19926;-59
2023/05/15 13:00:30;;;;;;;;;;;21.50;90.50;;;;;;5095328;28;19908;-58
2023/05/15 13:02:56;;;;;;;;;;;21.50;90.50;;;;;;5092754;28;20359;-59
2023/05/15 13:05:22;;;;;;;;;;;21.50;90.50;;;;;;5094335;28;20002;-58
2023/05/15 13:07:48;;;;;;;;;;;21.50;90.50;;;;;;5095259;28;19947;-58
2023/05/15 13:10:13;;;;;;;;;;;21.50;90.40;;;;;;5095904;28;19951;-57
2023/05/15 13:12:44;;;;;;;;;;;21.60;90.40;;;;;;5092424;28;19970;-55
2023/05/15 13:15:24;;;;;;;;;;;21.70;90.30;;;;;;5092531;28;20366;-48
2023/05/15 13:17:55;;;;;;;;;;;21.80;90.20;;;;;;5094305;28;19958;-51
2023/05/15 13:20:21;;;;;;;;;;;22.00;90.00;;;;;;5095185;28;20363;-49
2023/05/15 13:22:46;;;;;;;;;;;22.10;89.80;;;;;;5105515;28;20010;-53
2023/05/15 13:25:15;;;;;;;;;;;22.20;89.60;;;;;;5093331;28;20362;-48
2023/05/15 13:27:41;;;;;;;;;;;22.30;89.30;;;;;;5102577;28;20002;-47
2023/05/15 13:30:07;;;;;;;;;;;22.30;89.20;;;;;;5096965;28;19951;-52
2023/05/15 13:32:32;;;;;;;;;;;22.30;89.20;;;;;;5109036;28;19923;-52
2023/05/15 13:34:58;;;;;;;;;;;22.30;89.30;;;;;;5081427;28;19916;-50
2023/05/15 13:37:23;;;;;;;;;;;22.20;89.40;;;;;;5094857;28;19908;-51
2023/05/15 13:39:49;;;;;;;;;;;22.20;89.50;;;;;;5093205;28;20282;-52
2023/05/15 13:42:14;;;;;;;;;;;22.10;89.60;;;;;;5103412;28;19912;-49
2023/05/15 13:44:40;;;;;;;;;;;22.10;89.80;;;;;;5093240;28;19965;-52
2023/05/15 13:47:05;;;;;;;;;;;22.00;90.00;;;;;;5101286;28;19915;-54
2023/05/15 13:49:31;;;;;;;;;;;22.00;90.10;;;;;;5102710;28;19998;-50
2023/05/15 13:51:56;;;;;;;;;;;21.90;90.10;;;;;;5076238;28;19918;-54
2023/05/15 13:54:22;;;;;;;;;;;21.80;90.10;;;;;;5090981;28;20375;-55
2023/05/15 13:56:47;;;;;;;;;;;21.80;90.20;;;;;;5103740;28;19911;-47
2023/05/15 13:59:13;;;;;;;;;;;21.70;90.30;;;;;;5097905;28;19918;-51
2023/05/15 14:01:38;;;;;;;;;;;21.70;90.40;;;;;;5114479;28;19915;-51
2023/05/15 14:04:03;;;;;;;;;;;21.70;90.40;;;;;;5111369;28;19995;-55
2023/05/15 14:06:29;;;;;;;;;;;21.70;90.40;;;;;;5099308;28;19912;-52
2023/05/15 14:08:55;;;;;;;;;;;21.70;90.50;;;;;;5106306;28;20011;-50
2023/05/15 14:11:21;;;;;;;;;;;21.60;85.70;;;;;;5114233;28;19980;-49